createdAt,value
2022-08-01T00:00:06.542Z,4.60
2022-08-01T00:02:55.993Z,3.77
2022-08-01T00:05:54.678Z,3.50
2022-08-01T00:08:44.689Z,3.20
2022-08-01T00:11:37.626Z,3.53
2022-08-01T00:14:41.661Z,3.47
2022-08-01T00:17:28.960Z,3.90
2022-08-01T00:20:19.469Z,3.93
2022-08-01T00:23:21.272Z,3.67
2022-08-01T00:25:55.438Z,4.10
2022-08-01T00:31:43.799Z,3.70
2022-08-01T00:34:34.760Z,4.07
2022-08-01T00:37:15.583Z,4.37
2022-08-01T00:40:00.255Z,3.77
2022-08-01T00:42:52.483Z,4.30
2022-08-01T00:45:50.866Z,4.17
2022-08-01T00:48:46.306Z,4.13
2022-08-01T00:51:27.873Z,3.93
2022-08-01T00:54:05.628Z,4.73
2022-08-01T00:56:59.233Z,3.83
2022-08-01T01:02:43.351Z,4.70
2022-08-01T01:05:54.205Z,4.67
2022-08-01T01:08:40.606Z,4.23
2022-08-01T01:11:31.341Z,4.03
2022-08-01T01:14:12.575Z,4.47
2022-08-01T01:16:55.501Z,5.10
2022-08-01T01:19:37.640Z,4.17
2022-08-01T01:23:05.124Z,4.23
2022-08-01T01:26:03.148Z,3.83
2022-08-01T01:29:04.069Z,3.50
2022-08-01T01:32:03.430Z,4.10
2022-08-01T01:34:56.599Z,3.90
2022-08-01T01:37:53.720Z,4.83
2022-08-01T01:40:41.619Z,4.07
2022-08-01T01:43:33.370Z,4.37
2022-08-01T01:46:13.887Z,4.50
2022-08-01T01:49:08.361Z,4.27
2022-08-01T01:52:03.302Z,4.57
2022-08-01T01:54:50.277Z,4.30
2022-08-01T01:57:34.469Z,3.50
2022-08-01T02:00:28.149Z,4.50
2022-08-01T02:03:19.037Z,4.13
2022-08-01T02:06:32.790Z,5.40
2022-08-01T02:12:29.242Z,4.53
2022-08-01T02:15:05.895Z,4.83
2022-08-01T02:17:57.944Z,4.87
2022-08-01T02:20:46.912Z,4.60
2022-08-01T02:23:54.076Z,3.70
2022-08-01T02:26:40.027Z,5.00
2022-08-01T02:29:33.199Z,4.10
2022-08-01T02:32:14.678Z,4.40
2022-08-01T02:34:56.293Z,4.40
2022-08-01T02:37:36.577Z,4.97
2022-08-01T02:40:21.990Z,4.53
2022-08-01T02:42:55.902Z,4.50
2022-08-01T02:45:30.145Z,4.20
2022-08-01T02:48:05.043Z,6.57
2022-08-01T02:50:36.160Z,4.40
2022-08-01T02:53:06.399Z,5.90
2022-08-01T02:55:37.600Z,4.30
2022-08-01T02:58:06.788Z,4.43
2022-08-01T03:00:36.763Z,5.03
2022-08-01T03:03:09.059Z,4.20
2022-08-01T03:05:41.018Z,4.40
2022-08-01T03:08:14.710Z,4.97
2022-08-01T03:10:48.331Z,4.83
2022-08-01T03:13:20.051Z,4.27
2022-08-01T03:15:50.462Z,4.70
2022-08-01T03:18:23.676Z,4.90
2022-08-01T03:20:54.603Z,4.63
2022-08-01T03:23:38.135Z,4.00
2022-08-01T03:26:10.693Z,4.80
2022-08-01T03:28:39.681Z,4.60
2022-08-01T03:31:09.635Z,5.27
2022-08-01T03:33:39.070Z,4.53
2022-08-01T03:36:11.935Z,5.33
2022-08-01T03:38:42.986Z,4.23
2022-08-01T03:41:18.669Z,4.33
2022-08-01T03:43:54.704Z,5.60
2022-08-01T03:46:32.401Z,4.40
2022-08-01T03:49:06.373Z,3.97
2022-08-01T03:51:36.998Z,4.70
2022-08-01T03:54:08.205Z,6.00
2022-08-01T03:56:40.716Z,5.53
2022-08-01T03:59:11.344Z,4.63
2022-08-01T04:01:41.361Z,4.97
2022-08-01T04:04:10.612Z,4.80
2022-08-01T04:06:41.197Z,4.50
2022-08-01T04:09:13.601Z,5.00
2022-08-01T04:11:44.208Z,4.57
2022-08-01T04:14:13.638Z,3.73
2022-08-01T04:16:42.693Z,4.80
2022-08-01T04:19:11.699Z,4.73
2022-08-01T04:21:41.460Z,4.93
2022-08-01T04:24:14.521Z,4.20
2022-08-01T04:26:47.967Z,4.90
2022-08-01T04:29:20.218Z,4.40
2022-08-01T04:31:51.199Z,4.70
2022-08-01T04:34:24.078Z,4.33
2022-08-01T04:36:57.168Z,4.60
2022-08-01T04:39:28.972Z,4.20
2022-08-01T04:42:01.588Z,4.80
2022-08-01T04:44:32.703Z,5.00
2022-08-01T04:47:04.145Z,5.17
2022-08-01T04:49:49.036Z,4.63
2022-08-01T04:52:24.771Z,4.10
2022-08-01T04:54:53.705Z,4.40
2022-08-01T04:57:24.157Z,4.30
2022-08-01T04:59:57.764Z,4.47
2022-08-01T05:02:29.141Z,4.10
2022-08-01T05:04:58.665Z,4.10
2022-08-01T05:07:27.688Z,3.90
2022-08-01T05:09:56.497Z,4.37
2022-08-01T05:12:26.577Z,3.90
2022-08-01T05:14:55.318Z,4.50
2022-08-01T05:17:24.298Z,5.77
2022-08-01T05:19:53.092Z,4.20
2022-08-01T05:22:21.757Z,3.60
2022-08-01T05:24:51.260Z,4.30
2022-08-01T05:27:21.893Z,4.07
2022-08-01T05:29:52.787Z,7.43
2022-08-01T05:32:21.467Z,3.67
2022-08-01T05:34:50.027Z,3.53
2022-08-01T05:37:18.628Z,3.83
2022-08-01T05:39:47.505Z,3.97
2022-08-01T05:42:16.358Z,4.10
2022-08-01T05:44:45.181Z,3.20
2022-08-01T05:47:16.600Z,3.90
2022-08-01T05:49:45.353Z,3.30
2022-08-01T05:52:15.238Z,3.67
2022-08-01T05:54:44.226Z,3.80
2022-08-01T05:57:12.931Z,3.27
2022-08-01T05:59:43.440Z,2.60
2022-08-01T06:02:12.109Z,3.53
2022-08-01T06:04:42.153Z,3.40
2022-08-01T06:07:11.119Z,4.17
2022-08-01T06:09:40.099Z,4.30
2022-08-01T06:12:09.769Z,2.90
2022-08-01T06:14:38.476Z,4.40
2022-08-01T06:17:07.235Z,4.07
2022-08-01T06:19:36.180Z,4.30
2022-08-01T06:22:07.453Z,3.87
2022-08-01T06:24:37.477Z,4.70
2022-08-01T06:27:22.357Z,4.57
2022-08-01T06:29:54.485Z,4.10
2022-08-01T06:32:27.385Z,4.43
2022-08-01T06:34:57.772Z,3.90
2022-08-01T06:37:32.137Z,4.20
2022-08-01T06:40:04.352Z,4.30
2022-08-01T06:42:36.543Z,3.97
2022-08-01T06:45:05.731Z,4.83
2022-08-01T06:47:35.252Z,4.30
2022-08-01T06:50:04.786Z,4.17
2022-08-01T06:52:35.956Z,4.43
2022-08-01T06:55:05.025Z,4.10
2022-08-01T06:57:34.361Z,3.43
2022-08-01T07:00:06.509Z,3.93
2022-08-01T07:02:40.554Z,3.83
2022-08-01T07:05:10.403Z,3.57
2022-08-01T07:07:45.709Z,3.73
2022-08-01T07:10:14.913Z,3.93
2022-08-01T07:12:43.695Z,3.63
2022-08-01T07:15:13.565Z,4.23
2022-08-01T07:17:43.320Z,4.10
2022-08-01T07:20:16.462Z,4.90
2022-08-01T07:22:48.382Z,4.60
2022-08-01T07:25:18.084Z,4.80
2022-08-01T07:27:47.132Z,3.80
2022-08-01T07:30:17.213Z,3.43
2022-08-01T07:32:46.044Z,3.90
2022-08-01T07:35:14.746Z,3.90
2022-08-01T07:37:48.956Z,3.67
2022-08-01T07:40:20.357Z,3.67
2022-08-01T07:42:49.221Z,3.47
2022-08-01T07:45:18.207Z,3.73
2022-08-01T07:47:47.860Z,3.13
2022-08-01T07:50:16.890Z,3.80
2022-08-01T07:52:45.991Z,3.00
2022-08-01T07:55:16.695Z,3.20
2022-08-01T07:57:47.403Z,3.43
2022-08-01T08:00:17.876Z,3.33
2022-08-01T08:02:46.689Z,3.20
2022-08-01T08:05:15.528Z,3.40
2022-08-01T08:08:04.620Z,2.93
2022-08-01T08:10:33.807Z,3.73
2022-08-01T08:13:04.852Z,3.20
2022-08-01T08:15:34.323Z,3.47
2022-08-01T08:18:02.909Z,2.83
2022-08-01T08:20:31.578Z,2.63
2022-08-01T08:23:00.472Z,2.93
2022-08-01T08:25:30.249Z,2.67
2022-08-01T08:27:59.156Z,2.57
2022-08-01T08:30:29.192Z,1.97
2022-08-01T08:32:57.766Z,2.30
2022-08-01T08:35:40.236Z,2.33
2022-08-01T08:38:15.980Z,2.03
2022-08-01T08:40:45.146Z,2.20
2022-08-01T08:43:14.128Z,2.40
2022-08-01T08:45:58.849Z,4.00
2022-08-01T08:48:29.804Z,2.33
2022-08-01T08:51:00.278Z,2.47
2022-08-01T08:53:34.554Z,2.67
2022-08-01T08:56:04.658Z,2.33
2022-08-01T08:58:38.574Z,2.50
2022-08-01T09:01:11.195Z,2.00
2022-08-01T09:03:41.579Z,2.40
2022-08-01T09:06:11.269Z,2.70
2022-08-01T09:08:39.943Z,2.97
2022-08-01T09:11:08.531Z,2.60
2022-08-01T09:13:37.196Z,2.77
2022-08-01T09:16:19.416Z,7.97
2022-08-01T09:18:53.552Z,4.30
2022-08-01T09:21:25.238Z,2.70
2022-08-01T09:23:56.266Z,2.40
2022-08-01T09:26:33.979Z,2.10
2022-08-01T09:29:04.930Z,2.33
2022-08-01T09:31:47.406Z,1.90
2022-08-01T09:34:19.769Z,2.17
2022-08-01T09:36:54.308Z,2.20
2022-08-01T09:39:25.552Z,2.10
2022-08-01T09:41:55.247Z,1.80
2022-08-01T09:44:43.099Z,1.77
2022-08-01T09:47:15.820Z,1.70
2022-08-01T09:49:50.536Z,1.80
2022-08-01T09:52:25.667Z,2.33
2022-08-01T09:54:57.060Z,1.50
2022-08-01T09:57:26.543Z,2.30
2022-08-01T09:59:59.929Z,2.00
2022-08-01T10:02:34.145Z,1.47
2022-08-01T10:05:07.547Z,1.53
2022-08-01T10:07:43.652Z,1.30
2022-08-01T10:10:15.728Z,1.50
2022-08-01T10:12:45.936Z,1.50
2022-08-01T10:15:18.414Z,1.53
2022-08-01T10:17:57.282Z,1.40
2022-08-01T10:20:30.836Z,1.40
2022-08-01T10:23:06.267Z,0.80
2022-08-01T10:25:47.018Z,1.00
2022-08-01T10:28:21.499Z,0.90
2022-08-01T10:30:53.522Z,1.00
2022-08-01T10:33:50.773Z,0.90
2022-08-01T10:36:15.777Z,1.00
2022-08-01T10:38:45.952Z,0.87
2022-08-01T10:41:17.057Z,0.70
2022-08-01T10:43:46.977Z,0.80
2022-08-01T10:46:16.030Z,0.80
2022-08-01T10:48:53.249Z,0.80
2022-08-01T10:51:51.345Z,0.90
2022-08-01T10:54:12.539Z,0.83
2022-08-01T10:56:44.921Z,0.70
2022-08-01T10:59:50.410Z,1.03
2022-08-01T11:02:10.986Z,0.70
2022-08-01T11:05:00.288Z,0.80
2022-08-01T11:07:46.721Z,1.00
2022-08-01T11:10:25.802Z,1.10
2022-08-01T11:12:54.816Z,0.97
2022-08-01T11:15:32.170Z,0.90
2022-08-01T11:18:05.683Z,0.80
2022-08-01T11:20:41.587Z,1.10
2022-08-01T11:23:21.551Z,1.00
2022-08-01T11:26:17.610Z,0.90
2022-08-01T11:29:11.220Z,1.00
2022-08-01T11:31:38.388Z,1.00
2022-08-01T11:34:07.392Z,1.10
2022-08-01T11:39:26.963Z,1.07
2022-08-01T11:41:56.465Z,1.10
2022-08-01T11:44:30.530Z,1.10
2022-08-01T11:47:10.177Z,1.20
2022-08-01T11:49:51.705Z,1.10
2022-08-01T11:52:26.716Z,1.30
2022-08-01T11:54:57.839Z,1.60
2022-08-01T11:57:34.308Z,1.00
2022-08-01T12:00:15.233Z,1.10
2022-08-01T12:02:45.461Z,0.90
2022-08-01T12:05:17.372Z,1.30
2022-08-01T12:07:51.563Z,1.30
2022-08-01T12:10:21.459Z,1.00
2022-08-01T12:12:51.455Z,1.20
2022-08-01T12:15:21.521Z,0.70
2022-08-01T12:17:58.609Z,1.10
2022-08-01T12:20:30.735Z,1.33
2022-08-01T12:23:03.260Z,1.37
2022-08-01T12:25:32.167Z,1.13
2022-08-01T12:28:03.735Z,1.20
2022-08-01T12:30:36.317Z,1.53
2022-08-01T12:33:06.185Z,1.00
2022-08-01T12:35:35.869Z,1.10
2022-08-01T12:38:07.756Z,1.03
2022-08-01T12:40:42.101Z,1.00
2022-08-01T12:43:27.194Z,0.90
2022-08-01T12:45:59.800Z,0.90
2022-08-01T12:48:29.967Z,0.90
2022-08-01T12:51:01.532Z,0.90
2022-08-01T12:53:40.906Z,0.70
2022-08-01T12:56:11.395Z,0.83
2022-08-01T12:58:40.737Z,0.80
2022-08-01T13:01:12.441Z,0.70
2022-08-01T13:03:42.029Z,1.00
2022-08-01T13:06:16.128Z,0.87
2022-08-01T13:08:47.494Z,0.90
2022-08-01T13:11:22.593Z,0.80
2022-08-01T13:13:55.258Z,1.20
2022-08-01T13:16:49.199Z,0.80
2022-08-01T13:19:25.034Z,1.00
2022-08-01T13:21:58.644Z,1.00
2022-08-01T13:24:34.868Z,1.10
2022-08-01T13:27:05.506Z,1.30
2022-08-01T13:29:41.268Z,1.20
2022-08-01T13:32:28.710Z,2.57
2022-08-01T13:35:09.728Z,1.27
2022-08-01T13:37:39.142Z,1.30
2022-08-01T13:40:11.078Z,1.20
2022-08-01T13:42:40.115Z,0.80
2022-08-01T13:45:14.449Z,1.30
2022-08-01T13:48:03.594Z,0.93
2022-08-01T13:50:32.644Z,1.47
2022-08-01T13:53:01.209Z,1.13
2022-08-01T13:55:35.613Z,1.50
2022-08-01T13:58:05.015Z,1.40
2022-08-01T14:00:33.868Z,1.10
2022-08-01T14:03:02.377Z,1.23
2022-08-01T14:05:31.668Z,1.30
2022-08-01T14:08:00.190Z,1.30
2022-08-01T14:10:30.444Z,2.03
2022-08-01T14:12:59.686Z,1.30
2022-08-01T14:15:38.475Z,1.43
2022-08-01T14:18:09.330Z,1.60
2022-08-01T14:20:39.942Z,1.57
2022-08-01T14:23:09.391Z,0.90
2022-08-01T14:26:03.013Z,1.40
2022-08-01T14:28:31.026Z,1.50
2022-08-01T14:30:59.955Z,1.23
2022-08-01T14:33:29.327Z,1.70
2022-08-01T14:36:06.335Z,0.93
2022-08-01T14:38:46.866Z,0.70
2022-08-01T14:41:17.272Z,1.73
2022-08-01T14:43:46.108Z,1.10
2022-08-01T14:46:14.910Z,0.97
2022-08-01T14:48:43.721Z,1.10
2022-08-01T14:51:12.282Z,1.47
2022-08-01T14:53:46.539Z,1.00
2022-08-01T14:56:20.591Z,1.50
2022-08-01T14:58:49.280Z,1.37
2022-08-01T15:01:19.029Z,1.30
2022-08-01T15:03:48.969Z,0.97
2022-08-01T15:06:17.549Z,1.10
2022-08-01T15:08:46.135Z,1.00
2022-08-01T15:11:14.827Z,0.90
2022-08-01T15:13:45.744Z,0.80
2022-08-01T15:16:14.335Z,1.13
2022-08-01T15:18:45.251Z,1.43
2022-08-01T15:21:34.469Z,1.43
2022-08-01T15:24:05.269Z,1.20
2022-08-01T15:26:36.155Z,1.27
2022-08-01T15:29:07.566Z,1.40
2022-08-01T15:31:40.154Z,1.50
2022-08-01T15:34:10.298Z,1.40
2022-08-01T15:36:41.998Z,1.30
2022-08-01T15:39:12.206Z,1.20
2022-08-01T15:41:40.809Z,1.10
2022-08-01T15:44:10.879Z,1.10
2022-08-01T15:46:41.830Z,1.00
2022-08-01T15:49:11.643Z,1.13
2022-08-01T15:51:40.260Z,2.13
2022-08-01T15:54:14.244Z,1.10
2022-08-01T15:56:43.400Z,0.80
2022-08-01T15:59:15.899Z,1.33
2022-08-01T16:01:44.500Z,1.77
2022-08-01T16:04:13.081Z,1.60
2022-08-01T16:06:41.558Z,0.70
2022-08-01T16:09:10.326Z,0.90
2022-08-01T16:11:50.731Z,0.90
2022-08-01T16:14:21.920Z,1.83
2022-08-01T16:16:50.678Z,3.03
2022-08-01T16:19:19.730Z,1.10
2022-08-01T16:21:48.524Z,1.27
2022-08-01T16:24:17.081Z,0.97
2022-08-01T16:26:45.655Z,1.17
2022-08-01T16:29:14.193Z,1.53
2022-08-01T16:31:53.810Z,0.90
2022-08-01T16:34:31.617Z,1.00
2022-08-01T16:37:00.189Z,1.07
2022-08-01T16:39:30.461Z,1.37
2022-08-01T16:42:02.463Z,2.80
2022-08-01T16:44:34.356Z,1.37
2022-08-01T16:47:05.816Z,1.30
2022-08-01T16:49:34.632Z,1.00
2022-08-01T16:52:03.230Z,1.20
2022-08-01T16:54:31.744Z,2.03
2022-08-01T16:57:08.373Z,0.87
2022-08-01T16:59:41.202Z,1.40
2022-08-01T17:02:12.075Z,1.20
2022-08-01T17:04:40.677Z,1.77
2022-08-01T17:07:09.659Z,0.80
2022-08-01T17:09:43.177Z,1.50
2022-08-01T17:12:14.327Z,1.93
2022-08-01T17:14:51.140Z,1.10
2022-08-01T17:17:21.459Z,0.90
2022-08-01T17:19:50.143Z,1.40
2022-08-01T17:22:18.977Z,1.10
2022-08-01T17:24:48.253Z,1.37
2022-08-01T17:27:17.104Z,1.00
2022-08-01T17:29:45.844Z,1.27
2022-08-01T17:32:14.729Z,1.00
2022-08-01T17:34:44.769Z,1.00
2022-08-01T17:37:13.286Z,1.43
2022-08-01T17:39:42.968Z,1.53
2022-08-01T17:42:12.459Z,1.00
2022-08-01T17:44:41.721Z,0.80
2022-08-01T17:47:40.751Z,0.87
2022-08-01T17:50:09.672Z,1.07
2022-08-01T17:52:38.670Z,1.17
2022-08-01T17:55:53.932Z,0.90
2022-08-01T17:57:58.678Z,1.10
2022-08-01T18:00:27.202Z,1.10
2022-08-01T18:03:03.248Z,0.83
2022-08-01T18:05:38.411Z,0.80
2022-08-01T18:08:07.902Z,1.00
2022-08-01T18:10:46.817Z,1.20
2022-08-01T18:13:17.493Z,1.33
2022-08-01T18:15:49.130Z,1.30
2022-08-01T18:18:20.999Z,1.50
2022-08-01T18:21:03.697Z,1.30
2022-08-01T18:23:33.701Z,1.10
2022-08-01T18:26:02.842Z,0.90
2022-08-01T18:28:35.437Z,1.10
2022-08-01T18:31:07.274Z,0.80
2022-08-01T18:33:36.000Z,1.10
2022-08-01T18:36:06.463Z,0.93
2022-08-01T18:38:48.237Z,1.53
2022-08-01T18:41:16.783Z,1.40
2022-08-01T18:44:07.470Z,1.20
2022-08-01T18:46:37.542Z,1.03
2022-08-01T18:49:07.881Z,1.10
2022-08-01T18:51:43.826Z,1.30
2022-08-01T18:54:14.989Z,1.10
2022-08-01T18:56:52.111Z,1.13
2022-08-01T18:59:24.019Z,1.10
2022-08-01T19:01:55.469Z,1.23
2022-08-01T19:04:27.944Z,1.10
2022-08-01T19:07:00.235Z,1.37
2022-08-01T19:09:31.766Z,1.77
2022-08-01T19:12:00.371Z,2.20
2022-08-01T19:14:28.969Z,1.60
2022-08-01T19:16:57.590Z,1.17
2022-08-01T19:19:28.298Z,1.53
2022-08-01T19:21:58.404Z,1.33
2022-08-01T19:24:27.291Z,1.20
2022-08-01T19:26:58.049Z,1.30
2022-08-01T19:29:35.596Z,1.30
2022-08-01T19:32:06.727Z,1.27
2022-08-01T19:34:37.873Z,1.20
2022-08-01T19:37:08.871Z,1.57
2022-08-01T19:39:37.898Z,1.10
2022-08-01T19:42:06.896Z,1.63
2022-08-01T19:44:37.304Z,1.40
2022-08-01T19:47:06.462Z,1.33
2022-08-01T19:49:37.497Z,1.50
2022-08-01T19:52:09.021Z,1.73
2022-08-01T19:54:42.289Z,1.80
2022-08-01T19:57:12.873Z,10.30
2022-08-01T19:59:42.405Z,8.20
2022-08-01T20:02:11.257Z,7.00
2022-08-01T20:04:40.206Z,1.80
2022-08-01T20:07:11.109Z,1.40
2022-08-01T20:09:41.909Z,1.50
2022-08-01T20:12:11.153Z,1.43
2022-08-01T20:14:41.035Z,1.57
2022-08-01T20:17:10.109Z,1.43
2022-08-01T20:19:38.939Z,1.57
2022-08-01T20:22:14.359Z,1.23
2022-08-01T20:24:46.143Z,1.13
2022-08-01T20:27:18.653Z,1.70
2022-08-01T20:29:48.594Z,8.70
2022-08-01T20:32:18.039Z,12.50
2022-08-01T20:34:46.899Z,2.37
2022-08-01T20:38:06.176Z,1.73
2022-08-01T20:40:13.239Z,1.50
2022-08-01T20:42:52.474Z,1.80
2022-08-01T20:45:22.735Z,1.20
2022-08-01T20:47:53.995Z,1.30
2022-08-01T20:50:54.055Z,1.93
2022-08-01T20:53:26.219Z,1.60
2022-08-01T20:56:00.694Z,1.70
2022-08-01T20:58:38.246Z,1.40
2022-08-01T21:01:09.650Z,1.43
2022-08-01T21:03:46.723Z,2.60
2022-08-01T21:06:18.720Z,1.73
2022-08-01T21:08:50.020Z,1.30
2022-08-01T21:11:21.930Z,2.10
2022-08-01T21:13:52.081Z,1.93
2022-08-01T21:16:27.945Z,1.80
2022-08-01T21:21:57.443Z,1.50
2022-08-01T21:25:19.984Z,1.20
2022-08-01T21:27:50.644Z,1.30
2022-08-01T21:30:20.109Z,1.67
2022-08-01T21:32:50.146Z,1.63
2022-08-01T21:35:22.280Z,1.50
2022-08-01T21:37:52.564Z,1.60
2022-08-01T21:40:24.911Z,2.00
2022-08-01T21:42:55.416Z,1.50
2022-08-01T21:45:27.186Z,1.47
2022-08-01T21:47:56.556Z,1.80
2022-08-01T21:50:25.445Z,2.17
2022-08-01T21:53:05.791Z,2.13
2022-08-01T21:55:51.907Z,2.70
2022-08-01T21:58:32.463Z,2.70
2022-08-01T22:01:08.232Z,2.47
2022-08-01T22:03:46.795Z,2.90
2022-08-01T22:06:17.085Z,3.70
2022-08-01T22:08:51.202Z,3.03
2022-08-01T22:11:24.492Z,3.17
2022-08-01T22:13:56.332Z,3.10
2022-08-01T22:16:26.614Z,2.70
2022-08-01T22:18:55.786Z,2.30
2022-08-01T22:21:27.398Z,3.17
2022-08-01T22:23:56.041Z,2.40
2022-08-01T22:26:29.311Z,2.77
2022-08-01T22:28:59.761Z,2.50
2022-08-01T22:31:29.112Z,2.67
2022-08-01T22:33:57.861Z,2.57
2022-08-01T22:36:26.666Z,2.93
2022-08-01T22:38:55.276Z,2.23
2022-08-01T22:41:31.267Z,2.60
2022-08-01T22:44:27.519Z,1.90
2022-08-01T22:47:08.178Z,2.00
2022-08-01T22:49:39.161Z,2.17
2022-08-01T22:52:17.258Z,2.23
2022-08-01T22:54:52.084Z,2.10
2022-08-01T22:57:28.452Z,2.33
2022-08-01T23:00:02.808Z,2.20
2022-08-01T23:02:34.375Z,2.40
2022-08-01T23:05:05.184Z,2.17
2022-08-01T23:07:35.990Z,1.97
2022-08-01T23:10:07.706Z,2.00
2022-08-01T23:12:40.109Z,2.27
2022-08-01T23:15:10.427Z,2.57
2022-08-01T23:17:39.522Z,2.27
2022-08-01T23:20:09.545Z,1.90
2022-08-01T23:22:39.542Z,2.20
2022-08-01T23:25:13.697Z,2.40
2022-08-01T23:28:04.118Z,2.83
2022-08-01T23:30:35.913Z,2.30
2022-08-01T23:33:05.205Z,2.50
2022-08-01T23:35:35.489Z,2.63
2022-08-01T23:38:07.867Z,2.10
2022-08-01T23:40:37.018Z,2.00
2022-08-01T23:43:14.897Z,2.10
2022-08-01T23:46:04.532Z,2.37
2022-08-01T23:48:34.828Z,2.60
2022-08-01T23:51:04.260Z,1.90
2022-08-01T23:53:33.815Z,1.87
2022-08-01T23:56:05.237Z,2.80
2022-08-01T23:58:35.677Z,2.20
